Rejestracja

Wszystkie dane podawane są w czasie UTC za wyjątkiem miejsc gdzie jest jednoznacznie podane, że jest inaczej. Dane podawane w serwisie mają charakter informacyjny!!!
Informacje w sprawie dostępu do serwisu pod numerem tel. +48 22 68-28-138, CA MON (828-138)!!!
W związku z pracami remontowymi w SSH SZ RP mogą wystąpić problemy z obiegiem informacji meteorologicznej do dnia 30.10.2014r.
W tych przypadkach niezbędne informacje meteorologiczne udzielane będą pod nr tel. (22) 6828-230.

Aktualna Pogoda
 
Pogoda w Polsce
16°C Szczecin 10°C Suwałki 15°C Warszawa 15°C Poznan
16°C Opole 16°C Kraków 14°C Rzeszów
Więcej miast w Polsce

Pogoda w Europie
18°C Berlin 23°C Paryz 21°C Bruksela 11°C Oslo
19°C Praga 18°C Zagrzeb
Więcej miast w Europie

Metary wojskowe test
METAR EPBC 011600Z 03004KT 9999 -RA BKN040 13/10 Q1027=
METAR EPCE 011600Z 14006KT 9999 SCT068 BKN082 BKN146 14/10 Q1028 RMK 137 080 7/3=
METAR EPDA 011600Z VRB02KT 9999 OVC052 16/14 Q1027 RMK 158 088 8/8=
METAR EPDE 011600Z 06004KT 8000 SCT033 BKN080 BKN200 13/11 Q1027 RMK 134 087 7/3=
METAR EPIR 011600Z 10010KT 8000 BKN016 OVC027 13/11 Q1028 RMK 130 085 8/5=
METAR EPKS 011600Z 07004KT 4000 BR BKN007 OVC012 15/13 Q1027 RMK 147 091 8/5=
METAR EPLK 011600Z 10006KT 1400 BR OVC003 13/12 Q1026 RMK 129 097 8/8=
METAR EPLY 011600Z 05006KT 1000 DZ OVC004 12/12 Q1027 RMK 123 100 8/8=
METAR EPMB 011600Z 12006KT CAVOK 15/07 Q1028 RMK 145 060 4/2=
METAR EPMI 011600Z VRB03KT 4000 BR SCT008 BKN015 14/12 Q1027 RMK 144 087 7/4=
METAR EPMM 011600Z 10004KT CAVOK 13/06 Q1028 RMK 126 066 7/4=
METAR EPNA 011300Z 14004KT 9999 BKN020 16/12 Q1027 RMK 157 078 6/6=
METAR EPOK 011600Z 12010KT 9999 BKN103 13/10 Q1028 RMK 131 080 7/7=
METAR EPPR 011600Z 13002KT 9999 BKN036 15/08 Q1028 RMK 151 064 6/6=
METAR EPPW 011600Z 08008KT 3000 BR SCT004 BKN005 OVC009 13/12 Q1027 RMK 131 095 8/3=
METAR EPSN 011600Z 15003KT 9999 BKN014 15/13 Q1027 RMK 151 089 7/7=
METAR EPTM 011600Z 06006KT 1500 -RA BR BKN005 OVC012 13/13 Q1026 RMK 129 098 8/5=


 
Informacje ogólne
Pogoda
Warszawa
Temperatura: 14.5°C
Wiatr: 3.0 m/s
Ciśnienie: 1027.7 hPa
Zjawiska: Brak
Temp. max: 14.8 °C
Temp. min: 11.8 °C


Dane astronomiczne
Warszawa:
Dzien: 11:38 h
Noc: 12:22 h


Using HW VSP powered by HW group.

Prawa autorskie©2007 SSH SZ RP. Wszelkie prawa zastrzeżone.